sensor_id;sensor_type;location;lat;lon;timestamp;pressure;altitude;pressure_sealevel;temperature;humidity
43420;BME280;29017;51.514;-0.178;2022-11-15T00:01:11;100046.50;;;13.78;79.25
43420;BME280;29017;51.514;-0.178;2022-11-15T00:03:40;100046.72;;;13.76;78.76
43420;BME280;29017;51.514;-0.178;2022-11-15T00:06:08;100041.59;;;13.75;78.85
43420;BME280;29017;51.514;-0.178;2022-11-15T00:08:35;100037.50;;;13.72;78.59
43420;BME280;29017;51.514;-0.178;2022-11-15T00:11:02;100031.78;;;13.68;78.74
43420;BME280;29017;51.514;-0.178;2022-11-15T00:13:29;100025.06;;;13.66;78.67
43420;BME280;29017;51.514;-0.178;2022-11-15T00:15:57;100028.72;;;13.65;79.23
43420;BME280;29017;51.514;-0.178;2022-11-15T00:18:25;100023.81;;;13.62;78.76
43420;BME280;29017;51.514;-0.178;2022-11-15T00:20:52;100026.03;;;13.58;78.69
43420;BME280;29017;51.514;-0.178;2022-11-15T00:23:19;100017.03;;;13.53;78.48
43420;BME280;29017;51.514;-0.178;2022-11-15T00:25:46;100019.84;;;13.51;79.06
43420;BME280;29017;51.514;-0.178;2022-11-15T00:28:13;100019.84;;;13.51;79.48
43420;BME280;29017;51.514;-0.178;2022-11-15T00:30:40;100015.38;;;13.52;80.18
43420;BME280;29017;51.514;-0.178;2022-11-15T00:33:07;100011.13;;;13.51;79.36
43420;BME280;29017;51.514;-0.178;2022-11-15T00:35:35;100006.03;;;13.49;79.20
43420;BME280;29017;51.514;-0.178;2022-11-15T00:38:02;99999.94;;;13.49;79.76
43420;BME280;29017;51.514;-0.178;2022-11-15T00:40:30;99995.03;;;13.46;80.06
43420;BME280;29017;51.514;-0.178;2022-11-15T00:42:57;99988.13;;;13.45;80.00
43420;BME280;29017;51.514;-0.178;2022-11-15T00:45:24;99988.13;;;13.45;79.78
43420;BME280;29017;51.514;-0.178;2022-11-15T00:50:55;99973.03;;;13.39;79.82
43420;BME280;29017;51.514;-0.178;2022-11-15T00:53:26;99973.03;;;13.39;79.84
43420;BME280;29017;51.514;-0.178;2022-11-15T00:55:53;99967.09;;;13.37;79.58
43420;BME280;29017;51.514;-0.178;2022-11-15T00:58:24;99958.34;;;13.36;79.53
43420;BME280;29017;51.514;-0.178;2022-11-15T01:00:51;99954.09;;;13.35;79.69
43420;BME280;29017;51.514;-0.178;2022-11-15T01:03:18;99945.72;;;13.32;80.09
43420;BME280;29017;51.514;-0.178;2022-11-15T01:05:45;99939.63;;;13.31;80.29
43420;BME280;29017;51.514;-0.178;2022-11-15T01:08:12;99929.06;;;13.31;81.03
43420;BME280;29017;51.514;-0.178;2022-11-15T01:10:40;99930.91;;;13.31;80.38
43420;BME280;29017;51.514;-0.178;2022-11-15T01:13:07;99930.44;;;13.27;80.61
43420;BME280;29017;51.514;-0.178;2022-11-15T01:15:34;99924.75;;;13.23;80.61
43420;BME280;29017;51.514;-0.178;2022-11-15T01:18:00;99923.09;;;13.22;80.74
43420;BME280;29017;51.514;-0.178;2022-11-15T01:20:27;99918.00;;;13.21;81.23
43420;BME280;29017;51.514;-0.178;2022-11-15T01:22:57;99925.31;;;13.19;82.07
43420;BME280;29017;51.514;-0.178;2022-11-15T01:25:24;99910.66;;;13.16;81.03
43420;BME280;29017;51.514;-0.178;2022-11-15T01:27:51;99905.78;;;13.13;80.80
43420;BME280;29017;51.514;-0.178;2022-11-15T01:30:17;99899.00;;;13.11;81.34
43420;BME280;29017;51.514;-0.178;2022-11-15T01:32:44;99898.22;;;13.10;81.27
43420;BME280;29017;51.514;-0.178;2022-11-15T01:35:11;99893.72;;;13.11;81.33
43420;BME280;29017;51.514;-0.178;2022-11-15T01:37:38;99885.78;;;13.11;81.58
43420;BME280;29017;51.514;-0.178;2022-11-15T01:40:05;99884.00;;;13.11;81.24
43420;BME280;29017;51.514;-0.178;2022-11-15T01:42:32;99885.78;;;13.11;80.94
43420;BME280;29017;51.514;-0.178;2022-11-15T01:44:59;99878.09;;;13.09;81.04
43420;BME280;29017;51.514;-0.178;2022-11-15T01:47:28;99870.34;;;13.08;81.21
43420;BME280;29017;51.514;-0.178;2022-11-15T01:49:59;99867.88;;;13.06;80.97
43420;BME280;29017;51.514;-0.178;2022-11-15T01:52:28;99863.25;;;13.08;81.20
43420;BME280;29017;51.514;-0.178;2022-11-15T01:55:07;99869.16;;;13.10;81.07
43420;BME280;29017;51.514;-0.178;2022-11-15T01:57:34;99854.09;;;13.11;81.23
43420;BME280;29017;51.514;-0.178;2022-11-15T02:00:03;99855.97;;;13.10;80.87
43420;BME280;29017;51.514;-0.178;2022-11-15T02:02:31;99844.56;;;13.10;80.86
43420;BME280;29017;51.514;-0.178;2022-11-15T02:04:59;99830.56;;;13.09;80.56
43420;BME280;29017;51.514;-0.178;2022-11-15T02:07:25;99838.25;;;13.11;81.25
43420;BME280;29017;51.514;-0.178;2022-11-15T02:09:53;99835.63;;;13.11;80.67
43420;BME280;29017;51.514;-0.178;2022-11-15T02:12:20;99827.69;;;13.11;80.78
43420;BME280;29017;51.514;-0.178;2022-11-15T02:14:48;99827.69;;;13.11;80.37
43420;BME280;29017;51.514;-0.178;2022-11-15T02:33:05;99785.91;;;13.14;80.50
43420;BME280;29017;51.514;-0.178;2022-11-15T02:42:02;99773.94;;;13.18;80.73
43420;BME280;29017;51.514;-0.178;2022-11-15T02:44:30;99767.03;;;13.17;80.66
43420;BME280;29017;51.514;-0.178;2022-11-15T02:46:59;99756.44;;;13.17;80.81
43420;BME280;29017;51.514;-0.178;2022-11-15T02:49:45;99755.63;;;13.17;80.84
43420;BME280;29017;51.514;-0.178;2022-11-15T02:52:16;99765.19;;;13.18;81.34
43420;BME280;29017;51.514;-0.178;2022-11-15T02:54:52;99756.09;;;13.20;81.28
43420;BME280;29017;51.514;-0.178;2022-11-15T02:57:19;99745.50;;;13.20;81.23
43420;BME280;29017;51.514;-0.178;2022-11-15T03:05:18;99732.09;;;13.22;81.70
43420;BME280;29017;51.514;-0.178;2022-11-15T03:10:30;99723.97;;;13.23;82.58
43420;BME280;29017;51.514;-0.178;2022-11-15T03:13:13;99716.69;;;13.25;82.23
43420;BME280;29017;51.514;-0.178;2022-11-15T03:15:45;99711.00;;;13.28;82.29
43420;BME280;29017;51.514;-0.178;2022-11-15T03:18:17;99698.59;;;13.29;82.36
43420;BME280;29017;51.514;-0.178;2022-11-15T03:20:47;99697.38;;;13.32;82.50
43420;BME280;29017;51.514;-0.178;2022-11-15T03:23:14;99708.16;;;13.37;82.97
43420;BME280;29017;51.514;-0.178;2022-11-15T03:25:42;99698.84;;;13.41;83.15
43420;BME280;29017;51.514;-0.178;2022-11-15T03:31:29;99700.25;;;13.43;82.90
43420;BME280;29017;51.514;-0.178;2022-11-15T03:34:27;99691.31;;;13.44;82.90
43420;BME280;29017;51.514;-0.178;2022-11-15T03:36:55;99685.63;;;13.47;83.00
43420;BME280;29017;51.514;-0.178;2022-11-15T03:39:22;99680.78;;;13.51;83.70
43420;BME280;29017;51.514;-0.178;2022-11-15T03:42:04;99672.03;;;13.50;83.34
43420;BME280;29017;51.514;-0.178;2022-11-15T03:44:55;99671.81;;;13.52;83.05
43420;BME280;29017;51.514;-0.178;2022-11-15T03:47:32;99669.78;;;13.54;83.17
43420;BME280;29017;51.514;-0.178;2022-11-15T03:50:02;99671.44;;;13.55;83.08
43420;BME280;29017;51.514;-0.178;2022-11-15T03:52:33;99662.88;;;13.53;83.00
43420;BME280;29017;51.514;-0.178;2022-11-15T03:55:01;99662.50;;;13.56;83.68
43420;BME280;29017;51.514;-0.178;2022-11-15T03:57:28;99662.69;;;13.54;83.43
43420;BME280;29017;51.514;-0.178;2022-11-15T03:59:55;99652.94;;;13.55;83.34
43420;BME280;29017;51.514;-0.178;2022-11-15T04:02:22;99645.59;;;13.57;83.28
43420;BME280;29017;51.514;-0.178;2022-11-15T04:07:55;99642.13;;;13.56;83.40
43420;BME280;29017;51.514;-0.178;2022-11-15T04:10:22;99629.53;;;13.58;83.91
43420;BME280;29017;51.514;-0.178;2022-11-15T04:12:51;99640.13;;;13.58;83.83
43420;BME280;29017;51.514;-0.178;2022-11-15T04:15:26;99627.53;;;13.60;83.58
43420;BME280;29017;51.514;-0.178;2022-11-15T04:17:53;99620.59;;;13.59;83.55
43420;BME280;29017;51.514;-0.178;2022-11-15T04:20:24;99623.44;;;13.58;83.62
43420;BME280;29017;51.514;-0.178;2022-11-15T04:23:11;99624.44;;;13.57;83.63
43420;BME280;29017;51.514;-0.178;2022-11-15T04:26:07;99612.06;;;13.57;84.21
43420;BME280;29017;51.514;-0.178;2022-11-15T04:31:53;99599.47;;;13.59;84.26
43420;BME280;29017;51.514;-0.178;2022-11-15T04:34:20;99599.25;;;13.61;84.37
43420;BME280;29017;51.514;-0.178;2022-11-15T04:36:47;99583.41;;;13.61;84.68
43420;BME280;29017;51.514;-0.178;2022-11-15T04:39:32;99585.00;;;13.62;85.22
43420;BME280;29017;51.514;-0.178;2022-11-15T04:42:00;99578.53;;;13.64;85.79
43420;BME280;29017;51.514;-0.178;2022-11-15T04:44:27;99564.88;;;13.67;85.67
43420;BME280;29017;51.514;-0.178;2022-11-15T04:46:54;99566.50;;;13.68;85.60
43420;BME280;29017;51.514;-0.178;2022-11-15T04:49:21;99557.38;;;13.71;85.60
43420;BME280;29017;51.514;-0.178;2022-11-15T04:51:48;99544.75;;;13.73;85.65
43420;BME280;29017;51.514;-0.178;2022-11-15T04:54:15;99554.94;;;13.76;85.46
43420;BME280;29017;51.514;-0.178;2022-11-15T04:56:42;99554.72;;;13.78;85.74
43420;BME280;29017;51.514;-0.178;2022-11-15T04:59:09;99548.22;;;13.80;85.64
43420;BME280;29017;51.514;-0.178;2022-11-15T05:01:36;99543.50;;;13.82;85.62
43420;BME280;29017;51.514;-0.178;2022-11-15T05:04:10;99536.41;;;13.83;85.39
43420;BME280;29017;51.514;-0.178;2022-11-15T05:06:49;99531.94;;;13.83;85.54
43420;BME280;29017;51.514;-0.178;2022-11-15T05:09:20;99524.00;;;13.83;85.84
43420;BME280;29017;51.514;-0.178;2022-11-15T05:11:47;99522.78;;;13.86;86.20
43420;BME280;29017;51.514;-0.178;2022-11-15T05:14:14;99513.41;;;13.90;86.40
43420;BME280;29017;51.514;-0.178;2022-11-15T05:16:41;99514.00;;;13.92;86.05
43420;BME280;29017;51.514;-0.178;2022-11-15T05:19:08;99504.84;;;13.94;86.21
43420;BME280;29017;51.514;-0.178;2022-11-15T05:21:34;99508.31;;;13.95;86.06
43420;BME280;29017;51.514;-0.178;2022-11-15T05:24:02;99496.91;;;13.94;86.17
43420;BME280;29017;51.514;-0.178;2022-11-15T05:26:29;99491.19;;;13.97;86.40
43420;BME280;29017;51.514;-0.178;2022-11-15T05:28:57;99476.56;;;14.01;86.52
43420;BME280;29017;51.514;-0.178;2022-11-15T05:31:24;99476.97;;;14.05;86.14
43420;BME280;29017;51.514;-0.178;2022-11-15T05:33:52;99486.28;;;14.07;85.89
43420;BME280;29017;51.514;-0.178;2022-11-15T05:38:49;99477.72;;;14.12;85.51
43420;BME280;29017;51.514;-0.178;2022-11-15T05:41:17;99463.47;;;14.13;85.41
43420;BME280;29017;51.514;-0.178;2022-11-15T05:43:45;99455.97;;;14.17;85.87
43420;BME280;29017;51.514;-0.178;2022-11-15T05:46:15;99465.09;;;14.21;85.91
43420;BME280;29017;51.514;-0.178;2022-11-15T05:48:43;99458.56;;;14.23;85.28
43420;BME280;29017;51.514;-0.178;2022-11-15T05:51:11;99450.41;;;14.25;84.99
43420;BME280;29017;51.514;-0.178;2022-11-15T05:53:39;99443.09;;;14.27;84.87
43420;BME280;29017;51.514;-0.178;2022-11-15T05:56:06;99437.81;;;14.27;84.76
43420;BME280;29017;51.514;-0.178;2022-11-15T05:58:35;99442.88;;;14.28;85.10
43420;BME280;29017;51.514;-0.178;2022-11-15T06:01:03;99428.03;;;14.27;85.46
43420;BME280;29017;51.514;-0.178;2022-11-15T06:03:30;99429.63;;;14.28;85.37
43420;BME280;29017;51.514;-0.178;2022-11-15T06:05:58;99421.69;;;14.28;85.64
43420;BME280;29017;51.514;-0.178;2022-11-15T06:08:26;99433.09;;;14.29;85.55
43420;BME280;29017;51.514;-0.178;2022-11-15T06:10:53;99430.25;;;14.30;85.52
43420;BME280;29017;51.514;-0.178;2022-11-15T06:13:20;99424.94;;;14.30;85.91
43420;BME280;29017;51.514;-0.178;2022-11-15T06:15:47;99418.03;;;14.29;85.95
43420;BME280;29017;51.514;-0.178;2022-11-15T06:18:14;99417.00;;;14.30;85.93
43420;BME280;29017;51.514;-0.178;2022-11-15T06:23:59;99417.81;;;14.31;85.71
43420;BME280;29017;51.514;-0.178;2022-11-15T06:26:26;99412.09;;;14.34;85.11
43420;BME280;29017;51.514;-0.178;2022-11-15T06:28:53;99408.63;;;14.33;84.74
43420;BME280;29017;51.514;-0.178;2022-11-15T06:31:20;99412.09;;;14.34;85.03
43420;BME280;29017;51.514;-0.178;2022-11-15T06:36:58;99400.69;;;14.40;84.55
43420;BME280;29017;51.514;-0.178;2022-11-15T06:39:24;99394.41;;;14.41;84.49
43420;BME280;29017;51.514;-0.178;2022-11-15T06:41:51;99399.47;;;14.42;84.51
43420;BME280;29017;51.514;-0.178;2022-11-15T06:44:18;99387.03;;;14.43;84.75
43420;BME280;29017;51.514;-0.178;2022-11-15T06:49:56;99389.28;;;14.46;84.71
43420;BME280;29017;51.514;-0.178;2022-11-15T06:52:23;99377.66;;;14.47;85.08
43420;BME280;29017;51.514;-0.178;2022-11-15T06:54:50;99383.78;;;14.47;85.23
43420;BME280;29017;51.514;-0.178;2022-11-15T06:57:17;99372.38;;;14.47;85.51
43420;BME280;29017;51.514;-0.178;2022-11-15T06:59:45;99375.84;;;14.47;85.81
43420;BME280;29017;51.514;-0.178;2022-11-15T07:02:14;99367.91;;;14.47;86.64
43420;BME280;29017;51.514;-0.178;2022-11-15T07:04:41;99366.03;;;14.48;86.66
43420;BME280;29017;51.514;-0.178;2022-11-15T07:07:09;99355.44;;;14.48;86.67
43420;BME280;29017;51.514;-0.178;2022-11-15T07:09:36;99353.84;;;14.47;86.98
43420;BME280;29017;51.514;-0.178;2022-11-15T07:12:03;99354.88;;;14.46;87.37
43420;BME280;29017;51.514;-0.178;2022-11-15T07:14:33;99346.31;;;14.44;87.56
43420;BME280;29017;51.514;-0.178;2022-11-15T07:17:00;99342.66;;;14.45;88.10
43420;BME280;29017;51.514;-0.178;2022-11-15T07:19:29;99344.69;;;14.43;88.46
43420;BME280;29017;51.514;-0.178;2022-11-15T07:21:56;99346.97;;;14.39;88.88
43420;BME280;29017;51.514;-0.178;2022-11-15T07:24:23;99339.84;;;14.40;89.33
43420;BME280;29017;51.514;-0.178;2022-11-15T07:26:50;99347.16;;;14.38;89.94
43420;BME280;29017;51.514;-0.178;2022-11-15T07:29:17;99337.00;;;14.35;90.27
43420;BME280;29017;51.514;-0.178;2022-11-15T07:31:43;99327.66;;;14.32;91.25
43420;BME280;29017;51.514;-0.178;2022-11-15T07:34:10;99327.88;;;14.31;92.18
43420;BME280;29017;51.514;-0.178;2022-11-15T07:36:37;99336.00;;;14.29;92.47
43420;BME280;29017;51.514;-0.178;2022-11-15T07:39:04;99337.84;;;14.29;92.54
43420;BME280;29017;51.514;-0.178;2022-11-15T07:41:31;99337.47;;;14.25;93.18
43420;BME280;29017;51.514;-0.178;2022-11-15T07:43:58;99319.78;;;14.19;93.60
43420;BME280;29017;51.514;-0.178;2022-11-15T07:46:24;99317.34;;;14.18;94.01
43420;BME280;29017;51.514;-0.178;2022-11-15T07:48:51;99321.03;;;14.17;94.76
43420;BME280;29017;51.514;-0.178;2022-11-15T07:51:18;99320.44;;;14.14;95.26
43420;BME280;29017;51.514;-0.178;2022-11-15T07:53:45;99322.47;;;14.12;95.39
43420;BME280;29017;51.514;-0.178;2022-11-15T07:56:12;99317.19;;;14.12;95.60
43420;BME280;29017;51.514;-0.178;2022-11-15T07:58:53;99309.06;;;14.07;95.87
43420;BME280;29017;51.514;-0.178;2022-11-15T08:01:22;99300.75;;;14.04;96.11
43420;BME280;29017;51.514;-0.178;2022-11-15T08:03:50;99295.47;;;14.04;96.80
43420;BME280;29017;51.514;-0.178;2022-11-15T08:06:17;99291.00;;;14.04;96.89
43420;BME280;29017;51.514;-0.178;2022-11-15T08:08:47;99289.38;;;14.03;96.79
43420;BME280;29017;51.514;-0.178;2022-11-15T08:11:14;99287.97;;;14.01;96.92
43420;BME280;29017;51.514;-0.178;2022-11-15T08:13:41;99289.81;;;14.00;97.14
43420;BME280;29017;51.514;-0.178;2022-11-15T08:16:08;99274.97;;;13.99;97.21
43420;BME280;29017;51.514;-0.178;2022-11-15T08:18:35;99284.53;;;14.00;97.56
43420;BME280;29017;51.514;-0.178;2022-11-15T08:21:01;99267.63;;;14.01;97.93
43420;BME280;29017;51.514;-0.178;2022-11-15T08:23:28;99273.94;;;14.00;97.86
43420;BME280;29017;51.514;-0.178;2022-11-15T08:26:01;99263.38;;;14.00;97.76
43420;BME280;29017;51.514;-0.178;2022-11-15T08:28:30;99270.47;;;14.00;97.77
43420;BME280;29017;51.514;-0.178;2022-11-15T08:30:58;99271.28;;;14.00;97.47
43420;BME280;29017;51.514;-0.178;2022-11-15T08:33:25;99263.56;;;13.99;97.70
43420;BME280;29017;51.514;-0.178;2022-11-15T08:35:58;99258.28;;;13.99;97.86
43420;BME280;29017;51.514;-0.178;2022-11-15T08:38:26;99265.00;;;14.01;97.95
43420;BME280;29017;51.514;-0.178;2022-11-15T08:40:59;99256.81;;;14.03;97.76
43420;BME280;29017;51.514;-0.178;2022-11-15T08:43:27;99254.41;;;14.01;97.78
43420;BME280;29017;51.514;-0.178;2022-11-15T08:45:56;99249.13;;;14.01;97.61
43420;BME280;29017;51.514;-0.178;2022-11-15T08:48:23;99241.97;;;14.02;97.98
43420;BME280;29017;51.514;-0.178;2022-11-15T08:50:54;99232.16;;;14.09;98.33
43420;BME280;29017;51.514;-0.178;2022-11-15T08:53:21;99232.78;;;14.11;98.28
43420;BME280;29017;51.514;-0.178;2022-11-15T08:55:48;99231.72;;;14.12;98.40
43420;BME280;29017;51.514;-0.178;2022-11-15T08:58:15;99235.78;;;14.14;97.89
43420;BME280;29017;51.514;-0.178;2022-11-15T09:00:43;99233.75;;;14.17;98.06
43420;BME280;29017;51.514;-0.178;2022-11-15T09:03:29;99223.16;;;14.17;98.33
43420;BME280;29017;51.514;-0.178;2022-11-15T09:05:57;99232.31;;;14.14;98.65
43420;BME280;29017;51.514;-0.178;2022-11-15T09:08:24;99217.28;;;14.14;98.58
43420;BME280;29017;51.514;-0.178;2022-11-15T09:11:11;99216.81;;;14.18;98.84
43420;BME280;29017;51.514;-0.178;2022-11-15T09:13:39;99200.97;;;14.18;98.86
43420;BME280;29017;51.514;-0.178;2022-11-15T09:19:25;99195.91;;;14.16;99.19
43420;BME280;29017;51.514;-0.178;2022-11-15T09:21:52;99205.44;;;14.17;99.42
43420;BME280;29017;51.514;-0.178;2022-11-15T09:24:19;99193.84;;;14.18;99.36
43420;BME280;29017;51.514;-0.178;2022-11-15T09:26:46;99187.53;;;14.19;99.27
43420;BME280;29017;51.514;-0.178;2022-11-15T09:29:15;99187.53;;;14.19;99.29
43420;BME280;29017;51.514;-0.178;2022-11-15T09:31:42;99193.63;;;14.20;99.64
43420;BME280;29017;51.514;-0.178;2022-11-15T09:34:09;99184.88;;;14.19;99.71
43420;BME280;29017;51.514;-0.178;2022-11-15T09:36:36;99174.09;;;14.21;99.75
43420;BME280;29017;51.514;-0.178;2022-11-15T09:39:03;99175.72;;;14.22;100.00
43420;BME280;29017;51.514;-0.178;2022-11-15T09:44:22;99162.03;;;14.25;100.00
43420;BME280;29017;51.514;-0.178;2022-11-15T09:49:19;99142.91;;;14.23;100.00
43420;BME280;29017;51.514;-0.178;2022-11-15T09:51:47;99149.41;;;14.27;100.00
43420;BME280;29017;51.514;-0.178;2022-11-15T09:54:27;99141.69;;;14.25;100.00
43420;BME280;29017;51.514;-0.178;2022-11-15T09:57:16;99143.06;;;14.28;100.00
43420;BME280;29017;51.514;-0.178;2022-11-15T10:05:19;99121.69;;;14.29;100.00
43420;BME280;29017;51.514;-0.178;2022-11-15T10:13:50;99109.88;;;14.32;100.00
43420;BME280;29017;51.514;-0.178;2022-11-15T10:24:20;99089.69;;;14.37;100.00
43420;BME280;29017;51.514;-0.178;2022-11-15T10:26:50;99090.28;;;14.39;100.00
43420;BME280;29017;51.514;-0.178;2022-11-15T10:29:21;99083.97;;;14.40;100.00
43420;BME280;29017;51.514;-0.178;2022-11-15T10:31:52;99067.28;;;14.40;100.00
43420;BME280;29017;51.514;-0.178;2022-11-15T10:34:20;99068.28;;;14.39;100.00
43420;BME280;29017;51.514;-0.178;2022-11-15T10:36:54;99059.53;;;14.38;100.00
43420;BME280;29017;51.514;-0.178;2022-11-15T10:39:21;99047.94;;;14.39;100.00
43420;BME280;29017;51.514;-0.178;2022-11-15T10:41:48;99049.78;;;14.39;100.00
43420;BME280;29017;51.514;-0.178;2022-11-15T10:47:25;99042.78;;;14.44;100.00
43420;BME280;29017;51.514;-0.178;2022-11-15T10:49:55;99035.44;;;14.46;100.00
43420;BME280;29017;51.514;-0.178;2022-11-15T10:52:22;99028.53;;;14.45;100.00
43420;BME280;29017;51.514;-0.178;2022-11-15T10:54:58;99021.19;;;14.47;100.00
43420;BME280;29017;51.514;-0.178;2022-11-15T10:57:33;99023.59;;;14.49;100.00
43420;BME280;29017;51.514;-0.178;2022-11-15T11:00:07;99017.72;;;14.47;100.00
43420;BME280;29017;51.514;-0.178;2022-11-15T11:05:39;99006.53;;;14.45;100.00
43420;BME280;29017;51.514;-0.178;2022-11-15T11:08:31;99007.16;;;14.47;100.00
43420;BME280;29017;51.514;-0.178;2022-11-15T11:11:01;99001.59;;;14.48;100.00
43420;BME280;29017;51.514;-0.178;2022-11-15T11:13:30;98989.19;;;14.49;100.00
43420;BME280;29017;51.514;-0.178;2022-11-15T11:37:35;98947.88;;;14.48;100.00
43420;BME280;29017;51.514;-0.178;2022-11-15T11:47:48;98925.22;;;14.52;100.00
43420;BME280;29017;51.514;-0.178;2022-11-15T11:50:18;98917.28;;;14.52;100.00
43420;BME280;29017;51.514;-0.178;2022-11-15T12:03:59;98873.53;;;14.49;100.00
43420;BME280;29017;51.514;-0.178;2022-11-15T12:11:58;98855.03;;;14.49;100.00
43420;BME280;29017;51.514;-0.178;2022-11-15T12:17:08;98849.28;;;14.52;100.00
43420;BME280;29017;51.514;-0.178;2022-11-15T12:19:36;98839.47;;;14.53;100.00
43420;BME280;29017;51.514;-0.178;2022-11-15T12:22:12;98836.84;;;14.53;100.00
43420;BME280;29017;51.514;-0.178;2022-11-15T12:28:19;98826.72;;;14.50;100.00
43420;BME280;29017;51.514;-0.178;2022-11-15T12:30:52;98828.34;;;14.51;100.00
43420;BME280;29017;51.514;-0.178;2022-11-15T12:33:32;98826.50;;;14.51;100.00
43420;BME280;29017;51.514;-0.178;2022-11-15T12:36:02;98826.25;;;14.53;100.00
43420;BME280;29017;51.514;-0.178;2022-11-15T12:41:16;98816.84;;;14.57;100.00
43420;BME280;29017;51.514;-0.178;2022-11-15T12:43:45;98809.72;;;14.58;100.00
43420;BME280;29017;51.514;-0.178;2022-11-15T12:46:22;98815.56;;;14.60;100.00
43420;BME280;29017;51.514;-0.178;2022-11-15T12:48:51;98801.91;;;14.63;100.00
43420;BME280;29017;51.514;-0.178;2022-11-15T12:54:28;98787.03;;;14.73;100.00
43420;BME280;29017;51.514;-0.178;2022-11-15T12:57:38;98777.50;;;14.72;100.00
43420;BME280;29017;51.514;-0.178;2022-11-15T12:59:53;98774.59;;;14.74;100.00
43420;BME280;29017;51.514;-0.178;2022-11-15T13:02:28;98785.19;;;14.74;100.00
43420;BME280;29017;51.514;-0.178;2022-11-15T13:12:57;98779.09;;;14.85;100.00
43420;BME280;29017;51.514;-0.178;2022-11-15T13:17:52;98772.88;;;14.91;100.00
43420;BME280;29017;51.514;-0.178;2022-11-15T13:20:23;98783.81;;;14.94;100.00
43420;BME280;29017;51.514;-0.178;2022-11-15T13:23:00;98766.41;;;14.98;100.00
43420;BME280;29017;51.514;-0.178;2022-11-15T13:27:57;98782.06;;;15.12;100.00
43420;BME280;29017;51.514;-0.178;2022-11-15T13:30:31;98772.38;;;15.17;100.00
43420;BME280;29017;51.514;-0.178;2022-11-15T13:33:13;98786.53;;;15.23;100.00
43420;BME280;29017;51.514;-0.178;2022-11-15T13:35:41;98787.69;;;15.27;100.00
43420;BME280;29017;51.514;-0.178;2022-11-15T13:38:31;98786.66;;;15.28;100.00
43420;BME280;29017;51.514;-0.178;2022-11-15T13:40:57;98780.16;;;15.35;100.00
43420;BME280;29017;51.514;-0.178;2022-11-15T13:43:28;98789.59;;;15.43;100.00
43420;BME280;29017;51.514;-0.178;2022-11-15T13:46:06;98785.44;;;15.47;100.00
43420;BME280;29017;51.514;-0.178;2022-11-15T13:48:34;98789.25;;;15.51;99.76
43420;BME280;29017;51.514;-0.178;2022-11-15T13:51:02;98786.72;;;15.56;99.36
43420;BME280;29017;51.514;-0.178;2022-11-15T13:56:49;98799.16;;;15.56;97.13
43420;BME280;29017;51.514;-0.178;2022-11-15T13:59:26;98783.25;;;15.56;96.60
43420;BME280;29017;51.514;-0.178;2022-11-15T14:01:54;98793.41;;;15.59;96.47
43420;BME280;29017;51.514;-0.178;2022-11-15T14:04:22;98790.84;;;15.64;96.74
43420;BME280;29017;51.514;-0.178;2022-11-15T14:06:54;98794.88;;;15.66;96.68
43420;BME280;29017;51.514;-0.178;2022-11-15T14:09:37;98800.75;;;15.68;95.99
43420;BME280;29017;51.514;-0.178;2022-11-15T14:14:52;98805.25;;;15.68;94.38
43420;BME280;29017;51.514;-0.178;2022-11-15T14:17:20;98799.94;;;15.68;93.25
43420;BME280;29017;51.514;-0.178;2022-11-15T14:19:47;98796.00;;;15.70;92.95
43420;BME280;29017;51.514;-0.178;2022-11-15T14:22:21;98794.50;;;15.74;93.29
43420;BME280;29017;51.514;-0.178;2022-11-15T14:27:35;98801.16;;;15.77;93.08
43420;BME280;29017;51.514;-0.178;2022-11-15T14:30:02;98803.59;;;15.78;92.93
43420;BME280;29017;51.514;-0.178;2022-11-15T14:32:43;98804.63;;;15.77;92.26
43420;BME280;29017;51.514;-0.178;2022-11-15T14:35:20;98797.69;;;15.76;92.18
43420;BME280;29017;51.514;-0.178;2022-11-15T14:37:47;98806.59;;;15.70;90.13
43420;BME280;29017;51.514;-0.178;2022-11-15T14:40:17;98802.91;;;15.71;90.76
43420;BME280;29017;51.514;-0.178;2022-11-15T14:42:48;98800.16;;;15.66;90.27
43420;BME280;29017;51.514;-0.178;2022-11-15T14:45:16;98798.81;;;15.64;89.61
43420;BME280;29017;51.514;-0.178;2022-11-15T14:47:43;98800.53;;;15.58;88.28
43420;BME280;29017;51.514;-0.178;2022-11-15T14:50:13;98791.19;;;15.56;88.14
43420;BME280;29017;51.514;-0.178;2022-11-15T14:52:41;98800.19;;;15.55;88.54
43420;BME280;29017;51.514;-0.178;2022-11-15T14:55:19;98800.78;;;15.57;89.80
43420;BME280;29017;51.514;-0.178;2022-11-15T14:57:49;98805.84;;;15.58;90.91
43420;BME280;29017;51.514;-0.178;2022-11-15T15:00:16;98810.78;;;15.55;90.24
43420;BME280;29017;51.514;-0.178;2022-11-15T15:02:43;98808.94;;;15.55;90.39
43420;BME280;29017;51.514;-0.178;2022-11-15T15:05:33;98813.69;;;15.53;91.11
43420;BME280;29017;51.514;-0.178;2022-11-15T15:07:58;98811.59;;;15.55;92.02
43420;BME280;29017;51.514;-0.178;2022-11-15T15:10:27;98811.06;;;15.53;91.42
43420;BME280;29017;51.514;-0.178;2022-11-15T15:13:14;98811.84;;;15.54;91.20
43420;BME280;29017;51.514;-0.178;2022-11-15T15:15:42;98814.50;;;15.54;91.73
43420;BME280;29017;51.514;-0.178;2022-11-15T15:18:08;98814.50;;;15.54;91.95
43420;BME280;29017;51.514;-0.178;2022-11-15T15:20:38;98811.72;;;15.49;91.57
43420;BME280;29017;51.514;-0.178;2022-11-15T15:23:09;98824.16;;;15.48;92.01
43420;BME280;29017;51.514;-0.178;2022-11-15T15:25:41;98821.75;;;15.47;91.73
43420;BME280;29017;51.514;-0.178;2022-11-15T15:28:08;98818.50;;;15.45;91.56
43420;BME280;29017;51.514;-0.178;2022-11-15T15:30:35;98822.44;;;15.42;90.82
43420;BME280;29017;51.514;-0.178;2022-11-15T15:33:02;98826.34;;;15.39;90.33
43420;BME280;29017;51.514;-0.178;2022-11-15T15:35:30;98830.28;;;15.37;89.36
43420;BME280;29017;51.514;-0.178;2022-11-15T15:37:58;98825.44;;;15.34;89.04
43420;BME280;29017;51.514;-0.178;2022-11-15T15:40:25;98822.00;;;15.33;88.99
43420;BME280;29017;51.514;-0.178;2022-11-15T15:42:53;98827.75;;;15.30;89.00
43420;BME280;29017;51.514;-0.178;2022-11-15T15:45:20;98835.16;;;15.28;88.93
43420;BME280;29017;51.514;-0.178;2022-11-15T15:47:47;98839.53;;;15.23;88.14
43420;BME280;29017;51.514;-0.178;2022-11-15T15:52:54;98839.97;;;15.20;88.76